sensor_id;sensor_type;location;lat;lon;timestamp;P1;durP1;ratioP1;P2;durP2;ratioP2
3463;SDS011;3551;41.578;24.706;2024-03-06T00:02:19;21.17;;;12.32;;
3463;SDS011;3551;41.578;24.706;2024-03-06T00:04:48;22.38;;;13.10;;
3463;SDS011;3551;41.578;24.706;2024-03-06T00:07:15;22.92;;;12.98;;
3463;SDS011;3551;41.578;24.706;2024-03-06T00:09:42;23.58;;;12.00;;
3463;SDS011;3551;41.578;24.706;2024-03-06T00:12:10;24.05;;;11.32;;
3463;SDS011;3551;41.578;24.706;2024-03-06T00:14:37;22.10;;;11.30;;
3463;SDS011;3551;41.578;24.706;2024-03-06T00:17:04;20.92;;;11.65;;
3463;SDS011;3551;41.578;24.706;2024-03-06T00:19:32;20.83;;;10.63;;
3463;SDS011;3551;41.578;24.706;2024-03-06T00:22:00;25.00;;;13.25;;
3463;SDS011;3551;41.578;24.706;2024-03-06T00:24:28;22.30;;;12.18;;
3463;SDS011;3551;41.578;24.706;2024-03-06T00:26:55;20.17;;;12.88;;
3463;SDS011;3551;41.578;24.706;2024-03-06T00:29:21;22.55;;;13.45;;
3463;SDS011;3551;41.578;24.706;2024-03-06T00:31:48;25.65;;;13.93;;
3463;SDS011;3551;41.578;24.706;2024-03-06T00:34:15;26.02;;;13.10;;
3463;SDS011;3551;41.578;24.706;2024-03-06T00:36:43;20.40;;;11.27;;
3463;SDS011;3551;41.578;24.706;2024-03-06T00:39:11;21.75;;;11.10;;
3463;SDS011;3551;41.578;24.706;2024-03-06T00:41:39;22.75;;;11.63;;
3463;SDS011;3551;41.578;24.706;2024-03-06T00:44:07;19.20;;;10.45;;
3463;SDS011;3551;41.578;24.706;2024-03-06T00:46:34;28.50;;;12.98;;
3463;SDS011;3551;41.578;24.706;2024-03-06T00:49:01;26.27;;;14.50;;
3463;SDS011;3551;41.578;24.706;2024-03-06T00:51:28;37.47;;;17.23;;
3463;SDS011;3551;41.578;24.706;2024-03-06T00:53:56;31.92;;;16.95;;
3463;SDS011;3551;41.578;24.706;2024-03-06T00:56:24;29.48;;;15.80;;
3463;SDS011;3551;41.578;24.706;2024-03-06T00:58:51;32.58;;;16.15;;
3463;SDS011;3551;41.578;24.706;2024-03-06T01:01:18;29.73;;;16.35;;
3463;SDS011;3551;41.578;24.706;2024-03-06T01:03:45;35.88;;;17.80;;
3463;SDS011;3551;41.578;24.706;2024-03-06T01:06:12;29.67;;;15.10;;
3463;SDS011;3551;41.578;24.706;2024-03-06T01:08:39;30.73;;;16.92;;
3463;SDS011;3551;41.578;24.706;2024-03-06T01:11:06;26.80;;;14.55;;
3463;SDS011;3551;41.578;24.706;2024-03-06T01:13:34;29.70;;;15.75;;
3463;SDS011;3551;41.578;24.706;2024-03-06T01:16:01;28.65;;;13.95;;
3463;SDS011;3551;41.578;24.706;2024-03-06T01:18:28;34.97;;;14.40;;
3463;SDS011;3551;41.578;24.706;2024-03-06T01:20:55;32.33;;;15.00;;
3463;SDS011;3551;41.578;24.706;2024-03-06T01:23:22;31.52;;;13.82;;
3463;SDS011;3551;41.578;24.706;2024-03-06T01:25:49;42.92;;;13.27;;
3463;SDS011;3551;41.578;24.706;2024-03-06T01:28:16;65.53;;;13.20;;
3463;SDS011;3551;41.578;24.706;2024-03-06T01:30:45;33.60;;;13.77;;
3463;SDS011;3551;41.578;24.706;2024-03-06T01:33:12;25.27;;;12.10;;
3463;SDS011;3551;41.578;24.706;2024-03-06T01:35:38;32.15;;;14.07;;
3463;SDS011;3551;41.578;24.706;2024-03-06T01:38:05;27.85;;;13.27;;
3463;SDS011;3551;41.578;24.706;2024-03-06T01:40:34;26.38;;;11.80;;
3463;SDS011;3551;41.578;24.706;2024-03-06T01:43:01;106.68;;;16.23;;
3463;SDS011;3551;41.578;24.706;2024-03-06T01:45:28;29.38;;;12.27;;
3463;SDS011;3551;41.578;24.706;2024-03-06T01:47:58;23.52;;;11.65;;
3463;SDS011;3551;41.578;24.706;2024-03-06T01:50:24;27.42;;;12.55;;
3463;SDS011;3551;41.578;24.706;2024-03-06T01:52:52;29.42;;;12.82;;
3463;SDS011;3551;41.578;24.706;2024-03-06T01:55:19;35.88;;;11.82;;
3463;SDS011;3551;41.578;24.706;2024-03-06T01:57:46;24.95;;;11.85;;
3463;SDS011;3551;41.578;24.706;2024-03-06T02:00:13;29.45;;;12.35;;
3463;SDS011;3551;41.578;24.706;2024-03-06T02:02:42;19.73;;;10.73;;
3463;SDS011;3551;41.578;24.706;2024-03-06T02:05:11;22.83;;;11.48;;
3463;SDS011;3551;41.578;24.706;2024-03-06T02:07:39;27.95;;;12.25;;
3463;SDS011;3551;41.578;24.706;2024-03-06T02:10:07;36.67;;;12.48;;
3463;SDS011;3551;41.578;24.706;2024-03-06T02:12:35;46.92;;;12.27;;
3463;SDS011;3551;41.578;24.706;2024-03-06T02:15:02;59.55;;;12.88;;
3463;SDS011;3551;41.578;24.706;2024-03-06T02:17:30;76.38;;;14.05;;
3463;SDS011;3551;41.578;24.706;2024-03-06T02:19:57;38.22;;;11.98;;
3463;SDS011;3551;41.578;24.706;2024-03-06T02:22:26;42.97;;;12.40;;
3463;SDS011;3551;41.578;24.706;2024-03-06T02:24:52;110.45;;;15.38;;
3463;SDS011;3551;41.578;24.706;2024-03-06T02:27:19;90.60;;;16.08;;
3463;SDS011;3551;41.578;24.706;2024-03-06T02:29:47;145.68;;;18.02;;
3463;SDS011;3551;41.578;24.706;2024-03-06T02:32:14;26.90;;;13.13;;
3463;SDS011;3551;41.578;24.706;2024-03-06T02:34:42;29.88;;;12.75;;
3463;SDS011;3551;41.578;24.706;2024-03-06T02:37:09;31.48;;;13.63;;
3463;SDS011;3551;41.578;24.706;2024-03-06T02:39:38;31.45;;;14.02;;
3463;SDS011;3551;41.578;24.706;2024-03-06T02:42:05;30.77;;;11.90;;
3463;SDS011;3551;41.578;24.706;2024-03-06T02:44:32;63.15;;;13.52;;
3463;SDS011;3551;41.578;24.706;2024-03-06T02:46:59;46.75;;;13.55;;
3463;SDS011;3551;41.578;24.706;2024-03-06T02:49:26;32.20;;;9.30;;
3463;SDS011;3551;41.578;24.706;2024-03-06T02:51:53;134.63;;;12.30;;
3463;SDS011;3551;41.578;24.706;2024-03-06T02:54:20;19.63;;;9.98;;
3463;SDS011;3551;41.578;24.706;2024-03-06T02:56:50;33.95;;;10.95;;
3463;SDS011;3551;41.578;24.706;2024-03-06T02:59:17;60.08;;;11.00;;
3463;SDS011;3551;41.578;24.706;2024-03-06T03:01:45;25.92;;;10.10;;
3463;SDS011;3551;41.578;24.706;2024-03-06T03:04:12;70.97;;;11.45;;
3463;SDS011;3551;41.578;24.706;2024-03-06T03:06:39;55.90;;;11.23;;
3463;SDS011;3551;41.578;24.706;2024-03-06T03:09:06;58.15;;;11.02;;
3463;SDS011;3551;41.578;24.706;2024-03-06T03:11:37;38.17;;;9.30;;
3463;SDS011;3551;41.578;24.706;2024-03-06T03:14:05;126.28;;;12.75;;
3463;SDS011;3551;41.578;24.706;2024-03-06T03:16:32;26.73;;;9.50;;
3463;SDS011;3551;41.578;24.706;2024-03-06T03:19:00;32.92;;;11.63;;
3463;SDS011;3551;41.578;24.706;2024-03-06T03:21:28;91.22;;;10.90;;
3463;SDS011;3551;41.578;24.706;2024-03-06T03:23:55;24.42;;;10.50;;
3463;SDS011;3551;41.578;24.706;2024-03-06T03:26:21;26.58;;;9.15;;
3463;SDS011;3551;41.578;24.706;2024-03-06T03:28:48;46.55;;;10.68;;
3463;SDS011;3551;41.578;24.706;2024-03-06T03:31:17;21.08;;;10.25;;
3463;SDS011;3551;41.578;24.706;2024-03-06T03:33:44;18.77;;;8.52;;
3463;SDS011;3551;41.578;24.706;2024-03-06T03:36:11;18.60;;;8.50;;
3463;SDS011;3551;41.578;24.706;2024-03-06T03:38:38;21.60;;;9.68;;
3463;SDS011;3551;41.578;24.706;2024-03-06T03:41:09;17.65;;;9.48;;
3463;SDS011;3551;41.578;24.706;2024-03-06T03:43:38;44.47;;;9.73;;
3463;SDS011;3551;41.578;24.706;2024-03-06T03:46:05;41.22;;;10.10;;
3463;SDS011;3551;41.578;24.706;2024-03-06T03:48:34;43.63;;;9.00;;
3463;SDS011;3551;41.578;24.706;2024-03-06T03:51:02;50.85;;;8.68;;
3463;SDS011;3551;41.578;24.706;2024-03-06T03:53:29;18.90;;;8.15;;
3463;SDS011;3551;41.578;24.706;2024-03-06T03:55:56;25.23;;;9.13;;
3463;SDS011;3551;41.578;24.706;2024-03-06T03:58:23;20.13;;;8.95;;
3463;SDS011;3551;41.578;24.706;2024-03-06T04:00:50;43.50;;;10.40;;
3463;SDS011;3551;41.578;24.706;2024-03-06T04:03:18;23.27;;;10.25;;
3463;SDS011;3551;41.578;24.706;2024-03-06T04:05:48;45.92;;;8.68;;
3463;SDS011;3551;41.578;24.706;2024-03-06T04:08:15;28.15;;;9.90;;
3463;SDS011;3551;41.578;24.706;2024-03-06T04:10:42;29.08;;;10.70;;
3463;SDS011;3551;41.578;24.706;2024-03-06T04:13:10;40.08;;;10.20;;
3463;SDS011;3551;41.578;24.706;2024-03-06T04:15:38;22.83;;;9.93;;
3463;SDS011;3551;41.578;24.706;2024-03-06T04:18:05;30.77;;;10.07;;
3463;SDS011;3551;41.578;24.706;2024-03-06T04:20:32;26.80;;;8.90;;
3463;SDS011;3551;41.578;24.706;2024-03-06T04:23:00;27.92;;;9.55;;
3463;SDS011;3551;41.578;24.706;2024-03-06T04:25:28;26.88;;;11.18;;
3463;SDS011;3551;41.578;24.706;2024-03-06T04:27:55;19.38;;;10.07;;
3463;SDS011;3551;41.578;24.706;2024-03-06T04:30:22;22.08;;;10.85;;
3463;SDS011;3551;41.578;24.706;2024-03-06T04:32:50;22.42;;;9.52;;
3463;SDS011;3551;41.578;24.706;2024-03-06T04:35:17;23.83;;;10.30;;
3463;SDS011;3551;41.578;24.706;2024-03-06T04:37:44;27.58;;;9.55;;
3463;SDS011;3551;41.578;24.706;2024-03-06T04:40:12;20.58;;;9.13;;
3463;SDS011;3551;41.578;24.706;2024-03-06T04:42:44;19.13;;;9.82;;
3463;SDS011;3551;41.578;24.706;2024-03-06T04:45:14;99.57;;;11.98;;
3463;SDS011;3551;41.578;24.706;2024-03-06T04:47:41;76.13;;;14.00;;
3463;SDS011;3551;41.578;24.706;2024-03-06T04:50:09;62.63;;;13.50;;
3463;SDS011;3551;41.578;24.706;2024-03-06T04:52:36;46.63;;;16.08;;
3463;SDS011;3551;41.578;24.706;2024-03-06T04:55:04;60.22;;;27.70;;
3463;SDS011;3551;41.578;24.706;2024-03-06T04:57:33;45.28;;;21.55;;
3463;SDS011;3551;41.578;24.706;2024-03-06T05:00:01;70.97;;;20.25;;
3463;SDS011;3551;41.578;24.706;2024-03-06T05:02:31;69.68;;;21.05;;
3463;SDS011;3551;41.578;24.706;2024-03-06T05:04:59;80.35;;;25.70;;
3463;SDS011;3551;41.578;24.706;2024-03-06T05:07:29;73.57;;;23.70;;
3463;SDS011;3551;41.578;24.706;2024-03-06T05:09:57;41.67;;;19.23;;
3463;SDS011;3551;41.578;24.706;2024-03-06T05:12:24;42.78;;;17.83;;
3463;SDS011;3551;41.578;24.706;2024-03-06T05:14:53;41.13;;;16.83;;
3463;SDS011;3551;41.578;24.706;2024-03-06T05:17:21;44.67;;;15.50;;
3463;SDS011;3551;41.578;24.706;2024-03-06T05:19:49;53.50;;;12.75;;
3463;SDS011;3551;41.578;24.706;2024-03-06T05:22:16;29.88;;;12.18;;
3463;SDS011;3551;41.578;24.706;2024-03-06T05:24:43;37.22;;;13.80;;
3463;SDS011;3551;41.578;24.706;2024-03-06T05:27:11;27.65;;;14.10;;
3463;SDS011;3551;41.578;24.706;2024-03-06T05:29:41;35.20;;;13.82;;
3463;SDS011;3551;41.578;24.706;2024-03-06T05:32:10;32.22;;;13.43;;
3463;SDS011;3551;41.578;24.706;2024-03-06T05:34:37;73.65;;;15.05;;
3463;SDS011;3551;41.578;24.706;2024-03-06T05:37:04;69.72;;;14.98;;
3463;SDS011;3551;41.578;24.706;2024-03-06T05:39:31;36.55;;;15.88;;
3463;SDS011;3551;41.578;24.706;2024-03-06T05:42:02;42.45;;;14.02;;
3463;SDS011;3551;41.578;24.706;2024-03-06T05:44:30;67.78;;;13.13;;
3463;SDS011;3551;41.578;24.706;2024-03-06T05:46:57;32.58;;;14.75;;
3463;SDS011;3551;41.578;24.706;2024-03-06T05:49:27;45.92;;;14.18;;
3463;SDS011;3551;41.578;24.706;2024-03-06T05:51:55;27.58;;;14.45;;
3463;SDS011;3551;41.578;24.706;2024-03-06T05:54:23;30.88;;;16.33;;
3463;SDS011;3551;41.578;24.706;2024-03-06T05:56:50;80.10;;;29.75;;
3463;SDS011;3551;41.578;24.706;2024-03-06T05:59:19;57.85;;;27.92;;
3463;SDS011;3551;41.578;24.706;2024-03-06T06:01:46;45.03;;;22.80;;
3463;SDS011;3551;41.578;24.706;2024-03-06T06:04:13;56.38;;;24.02;;
3463;SDS011;3551;41.578;24.706;2024-03-06T06:06:42;72.63;;;25.15;;
3463;SDS011;3551;41.578;24.706;2024-03-06T06:09:09;58.67;;;23.88;;
3463;SDS011;3551;41.578;24.706;2024-03-06T06:11:43;52.15;;;22.05;;
3463;SDS011;3551;41.578;24.706;2024-03-06T06:14:13;52.28;;;23.98;;
3463;SDS011;3551;41.578;24.706;2024-03-06T06:16:49;47.92;;;21.33;;
3463;SDS011;3551;41.578;24.706;2024-03-06T06:19:17;65.05;;;23.50;;
3463;SDS011;3551;41.578;24.706;2024-03-06T06:21:46;51.33;;;24.05;;
3463;SDS011;3551;41.578;24.706;2024-03-06T06:24:13;50.55;;;23.52;;
3463;SDS011;3551;41.578;24.706;2024-03-06T06:26:43;50.45;;;23.90;;
3463;SDS011;3551;41.578;24.706;2024-03-06T06:29:13;54.83;;;24.48;;
3463;SDS011;3551;41.578;24.706;2024-03-06T06:31:41;55.80;;;25.08;;
3463;SDS011;3551;41.578;24.706;2024-03-06T06:34:08;60.08;;;25.77;;
3463;SDS011;3551;41.578;24.706;2024-03-06T06:36:35;77.50;;;30.67;;
3463;SDS011;3551;41.578;24.706;2024-03-06T06:39:07;76.43;;;30.20;;
3463;SDS011;3551;41.578;24.706;2024-03-06T06:41:37;76.90;;;37.42;;
3463;SDS011;3551;41.578;24.706;2024-03-06T06:44:04;91.07;;;40.22;;
3463;SDS011;3551;41.578;24.706;2024-03-06T06:46:31;101.88;;;42.65;;
3463;SDS011;3551;41.578;24.706;2024-03-06T06:48:59;87.57;;;40.85;;
3463;SDS011;3551;41.578;24.706;2024-03-06T06:51:26;82.65;;;36.83;;
3463;SDS011;3551;41.578;24.706;2024-03-06T06:53:56;117.85;;;42.13;;
3463;SDS011;3551;41.578;24.706;2024-03-06T06:56:26;94.28;;;38.33;;
3463;SDS011;3551;41.578;24.706;2024-03-06T06:58:53;78.90;;;36.55;;
3463;SDS011;3551;41.578;24.706;2024-03-06T07:01:20;62.90;;;30.13;;
3463;SDS011;3551;41.578;24.706;2024-03-06T07:03:48;62.45;;;29.70;;
3463;SDS011;3551;41.578;24.706;2024-03-06T07:06:16;60.20;;;31.42;;
3463;SDS011;3551;41.578;24.706;2024-03-06T07:08:44;68.00;;;31.48;;
3463;SDS011;3551;41.578;24.706;2024-03-06T07:11:12;84.50;;;41.22;;
3463;SDS011;3551;41.578;24.706;2024-03-06T07:13:44;90.95;;;43.50;;
3463;SDS011;3551;41.578;24.706;2024-03-06T07:16:11;96.28;;;43.03;;
3463;SDS011;3551;41.578;24.706;2024-03-06T07:18:38;96.28;;;43.47;;
3463;SDS011;3551;41.578;24.706;2024-03-06T07:21:07;68.15;;;34.15;;
3463;SDS011;3551;41.578;24.706;2024-03-06T07:23:34;64.50;;;32.65;;
3463;SDS011;3551;41.578;24.706;2024-03-06T07:26:01;65.63;;;33.90;;
3463;SDS011;3551;41.578;24.706;2024-03-06T07:28:28;62.75;;;31.05;;
3463;SDS011;3551;41.578;24.706;2024-03-06T07:30:56;53.45;;;28.63;;
3463;SDS011;3551;41.578;24.706;2024-03-06T07:33:23;57.05;;;25.27;;
3463;SDS011;3551;41.578;24.706;2024-03-06T07:35:50;52.03;;;23.92;;
3463;SDS011;3551;41.578;24.706;2024-03-06T07:38:17;49.20;;;22.83;;
3463;SDS011;3551;41.578;24.706;2024-03-06T07:40:45;39.03;;;19.15;;
3463;SDS011;3551;41.578;24.706;2024-03-06T07:43:12;41.70;;;21.63;;
3463;SDS011;3551;41.578;24.706;2024-03-06T07:45:40;76.80;;;28.58;;
3463;SDS011;3551;41.578;24.706;2024-03-06T07:48:11;77.63;;;28.50;;
3463;SDS011;3551;41.578;24.706;2024-03-06T07:50:38;72.33;;;27.37;;
3463;SDS011;3551;41.578;24.706;2024-03-06T07:53:05;47.53;;;26.07;;
3463;SDS011;3551;41.578;24.706;2024-03-06T07:55:32;40.00;;;16.90;;
3463;SDS011;3551;41.578;24.706;2024-03-06T07:57:59;57.77;;;29.23;;
3463;SDS011;3551;41.578;24.706;2024-03-06T08:00:26;67.70;;;27.73;;
3463;SDS011;3551;41.578;24.706;2024-03-06T08:02:54;71.20;;;31.33;;
3463;SDS011;3551;41.578;24.706;2024-03-06T08:05:22;81.50;;;37.10;;
3463;SDS011;3551;41.578;24.706;2024-03-06T08:07:49;59.90;;;28.70;;
3463;SDS011;3551;41.578;24.706;2024-03-06T08:10:17;40.37;;;20.03;;
3463;SDS011;3551;41.578;24.706;2024-03-06T08:12:49;47.53;;;26.30;;
3463;SDS011;3551;41.578;24.706;2024-03-06T08:15:21;53.80;;;22.07;;
3463;SDS011;3551;41.578;24.706;2024-03-06T08:17:48;32.60;;;16.53;;
3463;SDS011;3551;41.578;24.706;2024-03-06T08:20:17;98.73;;;28.57;;
3463;SDS011;3551;41.578;24.706;2024-03-06T08:22:46;16.43;;;9.57;;
3463;SDS011;3551;41.578;24.706;2024-03-06T08:25:14;21.07;;;10.47;;
3463;SDS011;3551;41.578;24.706;2024-03-06T08:27:41;22.13;;;8.63;;
3463;SDS011;3551;41.578;24.706;2024-03-06T08:30:08;33.43;;;11.50;;
3463;SDS011;3551;41.578;24.706;2024-03-06T08:32:37;20.07;;;12.07;;
3463;SDS011;3551;41.578;24.706;2024-03-06T08:35:04;31.50;;;15.43;;
3463;SDS011;3551;41.578;24.706;2024-03-06T08:37:32;18.17;;;8.57;;
3463;SDS011;3551;41.578;24.706;2024-03-06T08:40:00;15.27;;;7.90;;
3463;SDS011;3551;41.578;24.706;2024-03-06T08:42:28;34.80;;;11.90;;
3463;SDS011;3551;41.578;24.706;2024-03-06T08:44:55;30.53;;;10.60;;
3463;SDS011;3551;41.578;24.706;2024-03-06T08:47:23;42.10;;;16.53;;
3463;SDS011;3551;41.578;24.706;2024-03-06T08:49:49;35.47;;;14.10;;
3463;SDS011;3551;41.578;24.706;2024-03-06T08:52:17;24.80;;;10.90;;
3463;SDS011;3551;41.578;24.706;2024-03-06T08:54:47;23.90;;;10.60;;
3463;SDS011;3551;41.578;24.706;2024-03-06T08:57:17;22.43;;;8.93;;
3463;SDS011;3551;41.578;24.706;2024-03-06T08:59:46;21.27;;;8.60;;
3463;SDS011;3551;41.578;24.706;2024-03-06T09:02:14;24.70;;;9.23;;
3463;SDS011;3551;41.578;24.706;2024-03-06T09:04:45;23.40;;;11.90;;
3463;SDS011;3551;41.578;24.706;2024-03-06T09:07:12;36.13;;;10.50;;
3463;SDS011;3551;41.578;24.706;2024-03-06T09:09:40;20.07;;;8.53;;
3463;SDS011;3551;41.578;24.706;2024-03-06T09:12:08;29.40;;;10.80;;
3463;SDS011;3551;41.578;24.706;2024-03-06T09:14:38;18.23;;;10.23;;
3463;SDS011;3551;41.578;24.706;2024-03-06T09:17:06;20.90;;;7.00;;
3463;SDS011;3551;41.578;24.706;2024-03-06T09:19:34;51.17;;;12.73;;
3463;SDS011;3551;41.578;24.706;2024-03-06T09:22:02;24.33;;;11.60;;
3463;SDS011;3551;41.578;24.706;2024-03-06T09:24:29;18.67;;;9.90;;
3463;SDS011;3551;41.578;24.706;2024-03-06T09:26:56;56.97;;;15.40;;
3463;SDS011;3551;41.578;24.706;2024-03-06T09:29:23;15.67;;;7.73;;
3463;SDS011;3551;41.578;24.706;2024-03-06T09:31:51;11.07;;;6.23;;
3463;SDS011;3551;41.578;24.706;2024-03-06T09:34:19;10.73;;;6.97;;
3463;SDS011;3551;41.578;24.706;2024-03-06T09:36:47;10.17;;;5.03;;
3463;SDS011;3551;41.578;24.706;2024-03-06T09:39:15;10.27;;;6.40;;
3463;SDS011;3551;41.578;24.706;2024-03-06T09:41:44;11.83;;;5.50;;
3463;SDS011;3551;41.578;24.706;2024-03-06T09:44:12;16.83;;;5.70;;
3463;SDS011;3551;41.578;24.706;2024-03-06T09:46:40;24.80;;;10.53;;
3463;SDS011;3551;41.578;24.706;2024-03-06T09:49:12;10.00;;;5.93;;
3463;SDS011;3551;41.578;24.706;2024-03-06T09:51:41;8.40;;;5.53;;
3463;SDS011;3551;41.578;24.706;2024-03-06T09:54:11;35.70;;;7.87;;
3463;SDS011;3551;41.578;24.706;2024-03-06T09:56:40;17.53;;;8.40;;
3463;SDS011;3551;41.578;24.706;2024-03-06T09:59:08;24.50;;;7.27;;
3463;SDS011;3551;41.578;24.706;2024-03-06T10:01:35;15.67;;;7.97;;
3463;SDS011;3551;41.578;24.706;2024-03-06T10:04:21;17.60;;;7.03;;
3463;SDS011;3551;41.578;24.706;2024-03-06T10:06:55;17.70;;;6.93;;
3463;SDS011;3551;41.578;24.706;2024-03-06T10:09:22;12.77;;;7.50;;
3463;SDS011;3551;41.578;24.706;2024-03-06T10:11:50;20.33;;;8.60;;
3463;SDS011;3551;41.578;24.706;2024-03-06T10:14:19;15.03;;;7.30;;
3463;SDS011;3551;41.578;24.706;2024-03-06T10:16:56;19.77;;;8.50;;
3463;SDS011;3551;41.578;24.706;2024-03-06T10:19:25;13.33;;;8.13;;
3463;SDS011;3551;41.578;24.706;2024-03-06T10:21:56;11.17;;;7.20;;
3463;SDS011;3551;41.578;24.706;2024-03-06T10:24:24;15.40;;;8.37;;
3463;SDS011;3551;41.578;24.706;2024-03-06T10:26:54;20.77;;;9.80;;
3463;SDS011;3551;41.578;24.706;2024-03-06T10:29:23;12.57;;;7.77;;
3463;SDS011;3551;41.578;24.706;2024-03-06T10:31:51;18.57;;;7.90;;
3463;SDS011;3551;41.578;24.706;2024-03-06T10:34:20;14.73;;;7.03;;
3463;SDS011;3551;41.578;24.706;2024-03-06T10:36:51;16.53;;;6.30;;
3463;SDS011;3551;41.578;24.706;2024-03-06T10:39:20;20.17;;;6.00;;
3463;SDS011;3551;41.578;24.706;2024-03-06T10:41:53;14.07;;;6.80;;
3463;SDS011;3551;41.578;24.706;2024-03-06T10:44:22;10.03;;;5.23;;
3463;SDS011;3551;41.578;24.706;2024-03-06T10:46:51;13.33;;;5.33;;
3463;SDS011;3551;41.578;24.706;2024-03-06T10:49:25;11.13;;;5.60;;
3463;SDS011;3551;41.578;24.706;2024-03-06T10:51:55;15.30;;;5.80;;
3463;SDS011;3551;41.578;24.706;2024-03-06T10:54:26;12.10;;;5.50;;
3463;SDS011;3551;41.578;24.706;2024-03-06T10:56:55;8.30;;;4.43;;
3463;SDS011;3551;41.578;24.706;2024-03-06T10:59:23;11.53;;;5.70;;
3463;SDS011;3551;41.578;24.706;2024-03-06T11:01:53;17.30;;;7.40;;
3463;SDS011;3551;41.578;24.706;2024-03-06T11:04:21;16.67;;;5.53;;
3463;SDS011;3551;41.578;24.706;2024-03-06T11:06:51;13.60;;;6.23;;
3463;SDS011;3551;41.578;24.706;2024-03-06T11:09:29;8.33;;;5.33;;
3463;SDS011;3551;41.578;24.706;2024-03-06T11:12:00;20.60;;;8.80;;
3463;SDS011;3551;41.578;24.706;2024-03-06T11:14:30;8.83;;;5.37;;
3463;SDS011;3551;41.578;24.706;2024-03-06T11:16:58;10.57;;;6.50;;
3463;SDS011;3551;41.578;24.706;2024-03-06T11:19:28;13.93;;;6.80;;
3463;SDS011;3551;41.578;24.706;2024-03-06T11:21:57;13.03;;;5.20;;
3463;SDS011;3551;41.578;24.706;2024-03-06T11:24:31;8.27;;;5.90;;
3463;SDS011;3551;41.578;24.706;2024-03-06T11:26:59;5.97;;;3.97;;
3463;SDS011;3551;41.578;24.706;2024-03-06T11:29:28;10.43;;;4.97;;
3463;SDS011;3551;41.578;24.706;2024-03-06T11:32:05;8.40;;;4.80;;
3463;SDS011;3551;41.578;24.706;2024-03-06T11:34:35;8.27;;;4.57;;
3463;SDS011;3551;41.578;24.706;2024-03-06T11:37:05;9.47;;;4.53;;
3463;SDS011;3551;41.578;24.706;2024-03-06T11:39:34;10.13;;;5.30;;
3463;SDS011;3551;41.578;24.706;2024-03-06T11:42:03;16.03;;;7.00;;
3463;SDS011;3551;41.578;24.706;2024-03-06T11:44:33;21.47;;;6.73;;
3463;SDS011;3551;41.578;24.706;2024-03-06T11:47:01;10.23;;;4.77;;
3463;SDS011;3551;41.578;24.706;2024-03-06T11:49:30;18.33;;;7.80;;
3463;SDS011;3551;41.578;24.706;2024-03-06T11:52:00;40.20;;;15.57;;
3463;SDS011;3551;41.578;24.706;2024-03-06T11:54:29;15.00;;;9.43;;
3463;SDS011;3551;41.578;24.706;2024-03-06T11:56:57;12.83;;;6.50;;
3463;SDS011;3551;41.578;24.706;2024-03-06T11:59:25;10.03;;;4.70;;
3463;SDS011;3551;41.578;24.706;2024-03-06T12:01:52;17.00;;;5.83;;
3463;SDS011;3551;41.578;24.706;2024-03-06T12:04:22;44.23;;;10.93;;
3463;SDS011;3551;41.578;24.706;2024-03-06T12:06:50;11.03;;;5.20;;
3463;SDS011;3551;41.578;24.706;2024-03-06T12:09:17;18.10;;;11.53;;
3463;SDS011;3551;41.578;24.706;2024-03-06T12:11:46;17.97;;;10.20;;
3463;SDS011;3551;41.578;24.706;2024-03-06T12:14:14;17.53;;;8.50;;
3463;SDS011;3551;41.578;24.706;2024-03-06T12:16:43;13.97;;;6.53;;
3463;SDS011;3551;41.578;24.706;2024-03-06T12:19:10;22.93;;;8.97;;
3463;SDS011;3551;41.578;24.706;2024-03-06T12:21:38;18.20;;;7.00;;
3463;SDS011;3551;41.578;24.706;2024-03-06T12:24:06;45.63;;;12.53;;
3463;SDS011;3551;41.578;24.706;2024-03-06T12:26:34;16.93;;;8.40;;
3463;SDS011;3551;41.578;24.706;2024-03-06T12:29:08;29.23;;;9.30;;
3463;SDS011;3551;41.578;24.706;2024-03-06T12:31:36;36.57;;;14.83;;
3463;SDS011;3551;41.578;24.706;2024-03-06T12:34:05;20.07;;;6.20;;
3463;SDS011;3551;41.578;24.706;2024-03-06T12:36:32;13.63;;;5.40;;
3463;SDS011;3551;41.578;24.706;2024-03-06T12:39:00;11.07;;;5.50;;
3463;SDS011;3551;41.578;24.706;2024-03-06T12:41:27;10.13;;;5.20;;
3463;SDS011;3551;41.578;24.706;2024-03-06T12:43:55;69.17;;;18.23;;
3463;SDS011;3551;41.578;24.706;2024-03-06T12:46:24;6.83;;;3.93;;
3463;SDS011;3551;41.578;24.706;2024-03-06T12:48:52;9.37;;;4.73;;
3463;SDS011;3551;41.578;24.706;2024-03-06T12:51:19;10.93;;;6.67;;
3463;SDS011;3551;41.578;24.706;2024-03-06T12:53:47;22.77;;;10.83;;
3463;SDS011;3551;41.578;24.706;2024-03-06T12:56:15;15.70;;;8.60;;
3463;SDS011;3551;41.578;24.706;2024-03-06T12:58:42;16.93;;;7.20;;
3463;SDS011;3551;41.578;24.706;2024-03-06T13:01:09;11.67;;;6.50;;
3463;SDS011;3551;41.578;24.706;2024-03-06T13:03:38;14.37;;;6.50;;
3463;SDS011;3551;41.578;24.706;2024-03-06T13:06:05;10.27;;;6.17;;
3463;SDS011;3551;41.578;24.706;2024-03-06T13:08:32;10.67;;;4.53;;
3463;SDS011;3551;41.578;24.706;2024-03-06T13:10:59;10.10;;;5.00;;
3463;SDS011;3551;41.578;24.706;2024-03-06T13:13:26;9.53;;;4.50;;
3463;SDS011;3551;41.578;24.706;2024-03-06T13:15:54;14.13;;;6.00;;
3463;SDS011;3551;41.578;24.706;2024-03-06T13:18:22;10.07;;;4.93;;
3463;SDS011;3551;41.578;24.706;2024-03-06T13:20:50;11.90;;;4.53;;
3463;SDS011;3551;41.578;24.706;2024-03-06T13:23:17;12.20;;;5.50;;
3463;SDS011;3551;41.578;24.706;2024-03-06T13:25:44;18.20;;;6.87;;
3463;SDS011;3551;41.578;24.706;2024-03-06T13:28:12;10.90;;;6.10;;
3463;SDS011;3551;41.578;24.706;2024-03-06T13:30:39;17.17;;;8.57;;
3463;SDS011;3551;41.578;24.706;2024-03-06T13:33:06;11.33;;;5.40;;
3463;SDS011;3551;41.578;24.706;2024-03-06T13:35:33;9.80;;;5.87;;
3463;SDS011;3551;41.578;24.706;2024-03-06T13:38:04;12.23;;;6.30;;
3463;SDS011;3551;41.578;24.706;2024-03-06T13:40:32;14.10;;;5.70;;
3463;SDS011;3551;41.578;24.706;2024-03-06T13:42:59;10.20;;;6.37;;
3463;SDS011;3551;41.578;24.706;2024-03-06T13:45:26;11.80;;;6.07;;
3463;SDS011;3551;41.578;24.706;2024-03-06T13:47:53;15.10;;;9.23;;
3463;SDS011;3551;41.578;24.706;2024-03-06T13:50:20;16.73;;;8.40;;
3463;SDS011;3551;41.578;24.706;2024-03-06T13:52:48;16.73;;;6.80;;
3463;SDS011;3551;41.578;24.706;2024-03-06T13:55:24;12.80;;;5.83;;
3463;SDS011;3551;41.578;24.706;2024-03-06T13:57:56;17.10;;;7.50;;
3463;SDS011;3551;41.578;24.706;2024-03-06T14:00:26;17.20;;;7.57;;
3463;SDS011;3551;41.578;24.706;2024-03-06T14:02:53;8.67;;;5.17;;
3463;SDS011;3551;41.578;24.706;2024-03-06T14:05:20;13.13;;;5.83;;
3463;SDS011;3551;41.578;24.706;2024-03-06T14:07:50;25.43;;;7.87;;
3463;SDS011;3551;41.578;24.706;2024-03-06T14:10:19;33.60;;;9.83;;
3463;SDS011;3551;41.578;24.706;2024-03-06T14:12:49;132.07;;;22.03;;
3463;SDS011;3551;41.578;24.706;2024-03-06T14:15:17;10.67;;;5.57;;
3463;SDS011;3551;41.578;24.706;2024-03-06T14:17:45;19.43;;;6.27;;
3463;SDS011;3551;41.578;24.706;2024-03-06T14:20:12;13.37;;;7.07;;
3463;SDS011;3551;41.578;24.706;2024-03-06T14:22:40;14.27;;;7.90;;
3463;SDS011;3551;41.578;24.706;2024-03-06T14:25:20;13.87;;;9.13;;
3463;SDS011;3551;41.578;24.706;2024-03-06T14:27:48;23.93;;;7.33;;
3463;SDS011;3551;41.578;24.706;2024-03-06T14:30:15;45.37;;;16.20;;
3463;SDS011;3551;41.578;24.706;2024-03-06T14:32:44;19.60;;;9.20;;
3463;SDS011;3551;41.578;24.706;2024-03-06T14:35:11;22.57;;;10.53;;
3463;SDS011;3551;41.578;24.706;2024-03-06T14:37:41;22.80;;;10.10;;
3463;SDS011;3551;41.578;24.706;2024-03-06T14:40:38;14.17;;;6.70;;
3463;SDS011;3551;41.578;24.706;2024-03-06T14:43:08;24.83;;;13.80;;
3463;SDS011;3551;41.578;24.706;2024-03-06T14:45:44;16.53;;;8.73;;
3463;SDS011;3551;41.578;24.706;2024-03-06T14:48:15;29.37;;;13.33;;